Time;durP1;ratioP1;P1;durP2;ratioP2;P2;SDS_P1;SDS_P2;PMS_P1;PMS_P2;Temp;Humidity;BMP_temperature;BMP_pressure;BME280_temperature;BME280_humidity;BME280_pressure;Samples;Min_cycle;Max_cycle;Signal;HPM_P1;HPM_P2
2021/04/28 00:01:38;;;;;;;;;;;19.10;58.70;;;;;;5024140;28;19913;-77
2021/04/28 00:04:04;;;;;;;;;;;19.10;58.70;;;;;;5026968;28;20373;-76
2021/04/28 00:06:29;;;;;;;;;;;19.20;58.70;;;;;;5037365;28;19920;-76
2021/04/28 00:09:00;;;;;;;;;;;19.20;58.80;;;;;;5051314;28;19927;-76
2021/04/28 00:11:26;;;;;;;;;;;19.20;58.80;;;;;;5033355;28;19975;-76
2021/04/28 00:13:51;;;;;;;;;;;19.20;58.80;;;;;;5033852;28;19920;-76
2021/04/28 00:16:20;;;;;;;;;;;19.10;58.80;;;;;;5050018;28;20148;-76
2021/04/28 00:18:47;;;;;;;;;;;19.10;58.80;;;;;;5052157;28;19912;-77
2021/04/28 00:21:13;;;;;;;;;;;19.10;58.80;;;;;;5041682;28;19913;-76
2021/04/28 00:23:39;;;;;;;;;;;19.20;58.80;;;;;;5048554;28;19959;-77
2021/04/28 00:26:05;;;;;;;;;;;19.10;58.80;;;;;;5030117;28;19913;-76
2021/04/28 00:28:30;;;;;;;;;;;19.10;58.80;;;;;;5051022;28;19913;-77
2021/04/28 00:30:56;;;;;;;;;;;19.10;58.80;;;;;;5050873;28;19928;-76
2021/04/28 00:33:21;;;;;;;;;;;19.10;58.80;;;;;;5033489;28;19924;-76
2021/04/28 00:35:47;;;;;;;;;;;19.10;58.80;;;;;;5037019;28;20400;-76
2021/04/28 00:38:12;;;;;;;;;;;19.10;58.80;;;;;;5050971;28;19967;-76
2021/04/28 00:40:40;;;;;;;;;;;19.10;58.80;;;;;;5034243;28;19913;-78
2021/04/28 00:43:05;;;;;;;;;;;19.10;58.80;;;;;;5046804;28;19960;-74
2021/04/28 00:45:33;;;;;;;;;;;19.20;58.80;;;;;;5032883;28;19971;-77
2021/04/28 00:48:00;;;;;;;;;;;19.10;58.80;;;;;;5047195;28;19913;-76
2021/04/28 00:50:36;;;;;;;;;;;19.10;58.90;;;;;;5050346;28;19928;-77
2021/04/28 00:53:06;;;;;;;;;;;19.10;58.80;;;;;;5051738;28;20243;-76
2021/04/28 00:55:32;;;;;;;;;;;19.10;58.90;;;;;;5050711;28;19916;-76
2021/04/28 00:57:58;;;;;;;;;;;19.10;58.90;;;;;;5034341;28;20600;-76
2021/04/28 01:00:24;;;;;;;;;;;19.10;58.90;;;;;;5041270;28;20389;-76
2021/04/28 01:02:50;;;;;;;;;;;19.10;58.90;;;;;;5034762;28;19919;-76
2021/04/28 01:05:16;;;;;;;;;;;19.10;58.90;;;;;;5052009;28;20266;-76
2021/04/28 01:07:42;;;;;;;;;;;19.10;58.90;;;;;;5053781;28;19983;-76
2021/04/28 01:10:09;;;;;;;;;;;19.10;58.90;;;;;;5037062;28;20370;-76
2021/04/28 01:12:36;;;;;;;;;;;19.10;58.90;;;;;;5041789;28;19938;-75
2021/04/28 01:15:02;;;;;;;;;;;19.10;58.90;;;;;;5051642;28;19921;-76
2021/04/28 01:17:28;;;;;;;;;;;19.10;58.90;;;;;;5035247;28;19952;-77
2021/04/28 01:19:54;;;;;;;;;;;19.10;58.90;;;;;;5036017;28;19943;-76
2021/04/28 01:22:20;;;;;;;;;;;19.10;58.90;;;;;;5045953;28;19920;-77
2021/04/28 01:24:46;;;;;;;;;;;19.10;58.90;;;;;;5054218;28;19920;-77
2021/04/28 01:27:15;;;;;;;;;;;19.10;58.90;;;;;;5054639;28;19936;-77
2021/04/28 01:29:42;;;;;;;;;;;19.10;59.00;;;;;;5037067;28;19999;-77
2021/04/28 01:32:08;;;;;;;;;;;19.10;59.00;;;;;;5032982;28;19929;-76
2021/04/28 01:34:33;;;;;;;;;;;19.10;59.00;;;;;;5054701;28;19944;-76
2021/04/28 01:37:00;;;;;;;;;;;19.00;59.00;;;;;;5054523;28;19960;-76
2021/04/28 01:39:25;;;;;;;;;;;19.10;59.00;;;;;;5054294;28;19921;-77
2021/04/28 01:41:51;;;;;;;;;;;19.10;59.00;;;;;;5052157;28;20440;-76
2021/04/28 01:44:21;;;;;;;;;;;19.10;59.00;;;;;;5045531;28;19913;-77
2021/04/28 01:46:47;;;;;;;;;;;19.10;59.00;;;;;;5054150;28;20340;-76
2021/04/28 01:49:12;;;;;;;;;;;19.00;59.00;;;;;;5052476;28;19924;-77
2021/04/28 01:51:39;;;;;;;;;;;19.10;59.10;;;;;;5029073;28;19948;-77
2021/04/28 01:54:06;;;;;;;;;;;19.00;59.00;;;;;;5050528;28;19923;-76
2021/04/28 01:56:32;;;;;;;;;;;19.10;59.00;;;;;;5038960;28;19920;-77
2021/04/28 01:58:58;;;;;;;;;;;19.00;59.00;;;;;;5049054;28;19971;-77
2021/04/28 02:01:24;;;;;;;;;;;19.00;59.00;;;;;;5054546;28;19919;-76
2021/04/28 02:03:52;;;;;;;;;;;19.10;59.00;;;;;;5046833;28;19917;-76
2021/04/28 02:06:18;;;;;;;;;;;19.00;59.10;;;;;;5036009;28;20400;-76
2021/04/28 02:08:44;;;;;;;;;;;19.00;59.10;;;;;;5036099;28;19920;-77
2021/04/28 02:11:09;;;;;;;;;;;19.00;59.10;;;;;;5034477;28;19947;-76
2021/04/28 02:13:37;;;;;;;;;;;19.00;59.10;;;;;;5032453;28;19908;-76
2021/04/28 02:16:02;;;;;;;;;;;19.00;59.10;;;;;;5052154;28;19928;-76
2021/04/28 02:18:28;;;;;;;;;;;19.00;59.10;;;;;;5054150;28;19921;-76
2021/04/28 02:20:54;;;;;;;;;;;19.00;59.10;;;;;;5038711;28;19916;-76
2021/04/28 02:23:20;;;;;;;;;;;19.00;59.10;;;;;;5051180;28;19939;-76
2021/04/28 02:25:45;;;;;;;;;;;19.00;59.10;;;;;;5052344;28;19909;-77
2021/04/28 02:28:11;;;;;;;;;;;19.00;59.10;;;;;;5033303;28;19925;-76
2021/04/28 02:30:37;;;;;;;;;;;19.00;59.10;;;;;;5052561;28;20282;-77
2021/04/28 02:33:02;;;;;;;;;;;19.00;59.10;;;;;;5054329;28;19935;-76
2021/04/28 02:35:28;;;;;;;;;;;19.00;59.10;;;;;;5053518;28;19921;-77
2021/04/28 02:38:04;;;;;;;;;;;19.00;59.10;;;;;;5035889;28;19912;-76
2021/04/28 02:40:30;;;;;;;;;;;19.00;59.10;;;;;;5052635;28;19916;-76
2021/04/28 02:42:56;;;;;;;;;;;19.00;59.10;;;;;;5053924;28;19920;-77
2021/04/28 02:45:23;;;;;;;;;;;19.00;59.10;;;;;;5031804;28;19917;-77
2021/04/28 02:47:50;;;;;;;;;;;19.00;59.10;;;;;;5048182;28;19942;-77
2021/04/28 02:50:19;;;;;;;;;;;19.00;59.20;;;;;;5031631;28;19921;-77
2021/04/28 02:52:46;;;;;;;;;;;19.00;59.20;;;;;;5051867;28;19920;-76
2021/04/28 02:55:12;;;;;;;;;;;19.00;59.20;;;;;;5053008;28;19940;-78
2021/04/28 02:57:39;;;;;;;;;;;19.00;59.20;;;;;;5037410;28;19920;-77
2021/04/28 03:00:06;;;;;;;;;;;19.00;59.20;;;;;;5033866;28;19924;-77
2021/04/28 03:02:32;;;;;;;;;;;18.90;59.20;;;;;;5052226;28;19916;-76
2021/04/28 03:04:58;;;;;;;;;;;19.00;59.20;;;;;;5034057;28;19924;-76
2021/04/28 03:07:23;;;;;;;;;;;19.00;59.20;;;;;;5054207;28;19921;-77
2021/04/28 03:09:49;;;;;;;;;;;19.00;59.20;;;;;;5031874;28;19913;-76
2021/04/28 03:12:15;;;;;;;;;;;19.00;59.20;;;;;;5052442;28;20358;-76
2021/04/28 03:14:41;;;;;;;;;;;19.00;59.20;;;;;;5047233;28;20267;-76
2021/04/28 03:17:07;;;;;;;;;;;18.90;59.20;;;;;;5052774;28;19935;-77
2021/04/28 03:19:33;;;;;;;;;;;18.90;59.30;;;;;;5032940;28;19924;-76
2021/04/28 03:21:58;;;;;;;;;;;19.00;59.30;;;;;;5029936;28;20326;-76
2021/04/28 03:24:24;;;;;;;;;;;18.90;59.30;;;;;;5047369;28;19929;-76
2021/04/28 03:26:53;;;;;;;;;;;18.90;59.30;;;;;;5047499;28;19923;-76
2021/04/28 03:29:19;;;;;;;;;;;18.90;59.30;;;;;;5046445;28;19913;-76
2021/04/28 03:31:45;;;;;;;;;;;18.90;59.20;;;;;;5046761;28;19932;-77
2021/04/28 03:34:11;;;;;;;;;;;19.00;59.30;;;;;;5052725;28;19995;-76
2021/04/28 03:36:36;;;;;;;;;;;18.90;59.30;;;;;;5031733;28;20307;-76
2021/04/28 03:39:03;;;;;;;;;;;18.90;59.30;;;;;;5037627;28;19958;-76
2021/04/28 03:41:29;;;;;;;;;;;18.90;59.30;;;;;;5045231;28;20075;-76
2021/04/28 03:43:54;;;;;;;;;;;19.00;59.30;;;;;;5052532;28;19984;-78
2021/04/28 03:46:20;;;;;;;;;;;18.90;59.30;;;;;;5040781;28;19920;-77
2021/04/28 03:48:46;;;;;;;;;;;19.00;59.30;;;;;;5054078;28;19913;-76
2021/04/28 03:51:12;;;;;;;;;;;18.90;59.30;;;;;;5052167;28;19970;-77
2021/04/28 03:53:37;;;;;;;;;;;18.90;59.30;;;;;;5051664;28;20281;-77
2021/04/28 03:56:03;;;;;;;;;;;18.90;59.30;;;;;;5045493;28;19920;-76
2021/04/28 03:58:28;;;;;;;;;;;18.90;59.30;;;;;;5049715;28;19927;-76
2021/04/28 04:00:54;;;;;;;;;;;18.90;59.30;;;;;;5049776;28;19913;-77
2021/04/28 04:03:19;;;;;;;;;;;18.90;59.30;;;;;;5048447;28;20024;-77
2021/04/28 04:05:45;;;;;;;;;;;18.90;59.30;;;;;;5054423;28;20341;-77
2021/04/28 04:08:10;;;;;;;;;;;18.90;59.30;;;;;;5034869;28;19925;-78
2021/04/28 04:10:36;;;;;;;;;;;18.90;59.30;;;;;;5047589;28;20349;-77
2021/04/28 04:13:01;;;;;;;;;;;18.90;59.30;;;;;;5052090;28;19916;-76
2021/04/28 04:15:27;;;;;;;;;;;18.90;59.30;;;;;;5051606;28;20010;-76
2021/04/28 04:17:52;;;;;;;;;;;18.90;59.30;;;;;;5051462;28;20281;-76
2021/04/28 04:20:18;;;;;;;;;;;18.90;59.30;;;;;;5035304;28;19987;-78
2021/04/28 04:22:43;;;;;;;;;;;18.90;59.30;;;;;;5051832;28;19912;-76
2021/04/28 04:25:09;;;;;;;;;;;18.90;59.30;;;;;;5033270;28;19920;-76
2021/04/28 04:27:35;;;;;;;;;;;18.90;59.30;;;;;;5027512;28;19916;-76
2021/04/28 04:30:01;;;;;;;;;;;18.90;59.30;;;;;;5050274;28;19913;-76
2021/04/28 04:32:26;;;;;;;;;;;18.90;59.30;;;;;;5050985;28;19967;-77
2021/04/28 04:34:52;;;;;;;;;;;19.00;59.30;;;;;;5043562;28;19917;-77
2021/04/28 04:37:17;;;;;;;;;;;18.90;59.20;;;;;;5045449;28;19917;-77
2021/04/28 04:39:43;;;;;;;;;;;18.90;59.30;;;;;;5052223;28;19912;-78
2021/04/28 04:42:10;;;;;;;;;;;18.90;59.20;;;;;;5023660;28;20263;-78
2021/04/28 04:44:35;;;;;;;;;;;18.90;59.20;;;;;;5048569;28;20012;-77
2021/04/28 04:47:01;;;;;;;;;;;19.00;59.20;;;;;;5038021;28;20348;-76
2021/04/28 04:49:26;;;;;;;;;;;18.90;59.20;;;;;;5038847;28;19917;-76
2021/04/28 04:51:52;;;;;;;;;;;19.00;59.20;;;;;;5053849;28;19929;-77
2021/04/28 04:54:17;;;;;;;;;;;19.00;59.20;;;;;;5060536;28;20258;-77
2021/04/28 04:56:43;;;;;;;;;;;18.90;59.20;;;;;;5055003;28;19913;-77
2021/04/28 04:59:08;;;;;;;;;;;19.00;59.10;;;;;;5037061;28;20011;-78
2021/04/28 05:01:34;;;;;;;;;;;19.00;59.10;;;;;;5051572;28;20004;-77
2021/04/28 05:03:59;;;;;;;;;;;19.00;59.10;;;;;;5030929;28;20354;-77
2021/04/28 05:06:25;;;;;;;;;;;19.00;59.10;;;;;;5045031;28;19921;-76
2021/04/28 05:08:50;;;;;;;;;;;19.00;59.10;;;;;;5055165;28;19912;-76
2021/04/28 05:11:16;;;;;;;;;;;19.00;59.10;;;;;;5037111;28;19921;-76
2021/04/28 05:13:42;;;;;;;;;;;19.00;59.10;;;;;;5034319;28;19916;-77
2021/04/28 05:16:08;;;;;;;;;;;19.00;59.10;;;;;;5040446;28;20350;-77
2021/04/28 05:18:33;;;;;;;;;;;19.00;59.10;;;;;;5054498;28;19967;-77
2021/04/28 05:20:58;;;;;;;;;;;19.00;59.00;;;;;;5052780;28;19913;-77
2021/04/28 05:23:24;;;;;;;;;;;19.00;59.00;;;;;;5052961;28;19956;-77
2021/04/28 05:25:49;;;;;;;;;;;19.00;59.00;;;;;;5031871;28;20019;-76
2021/04/28 05:28:15;;;;;;;;;;;19.00;59.00;;;;;;5028632;28;19921;-76
2021/04/28 05:30:41;;;;;;;;;;;19.00;58.90;;;;;;5054069;28;19920;-76
2021/04/28 05:33:07;;;;;;;;;;;19.10;58.90;;;;;;5037105;28;19951;-76
2021/04/28 05:35:32;;;;;;;;;;;19.10;58.80;;;;;;5028811;28;19962;-77
2021/04/28 05:37:58;;;;;;;;;;;19.10;58.70;;;;;;5042527;28;19917;-76
2021/04/28 05:40:23;;;;;;;;;;;19.10;58.70;;;;;;5035796;28;19912;-75
2021/04/28 05:42:49;;;;;;;;;;;19.10;58.70;;;;;;5051637;28;20416;-77
2021/04/28 05:45:15;;;;;;;;;;;19.10;58.60;;;;;;5053938;28;20286;-76
2021/04/28 05:47:40;;;;;;;;;;;19.10;58.60;;;;;;5053694;28;19943;-77
2021/04/28 05:50:07;;;;;;;;;;;19.20;58.50;;;;;;5047390;28;20004;-77
2021/04/28 05:52:33;;;;;;;;;;;19.20;58.60;;;;;;5043668;28;19955;-78
2021/04/28 05:54:58;;;;;;;;;;;19.20;58.50;;;;;;5047529;28;19912;-77
2021/04/28 05:57:24;;;;;;;;;;;19.20;58.50;;;;;;5054081;28;19921;-78
2021/04/28 05:59:49;;;;;;;;;;;19.20;58.40;;;;;;5030759;28;19917;-75
2021/04/28 06:02:15;;;;;;;;;;;19.20;58.40;;;;;;5035088;28;19920;-76
2021/04/28 06:04:40;;;;;;;;;;;19.20;58.40;;;;;;5052090;28;20262;-75
2021/04/28 06:07:06;;;;;;;;;;;19.20;58.40;;;;;;5057472;28;19963;-75
2021/04/28 06:09:32;;;;;;;;;;;19.20;58.30;;;;;;5053785;28;19921;-78
2021/04/28 06:11:58;;;;;;;;;;;19.30;58.30;;;;;;5032913;28;19921;-79
2021/04/28 06:14:23;;;;;;;;;;;19.30;58.20;;;;;;5053769;28;19913;-77
2021/04/28 06:16:49;;;;;;;;;;;19.20;58.20;;;;;;5042809;28;19912;-77
2021/04/28 06:19:14;;;;;;;;;;;19.30;58.20;;;;;;5037107;28;19912;-77
2021/04/28 06:21:40;;;;;;;;;;;19.30;58.10;;;;;;5052900;28;19999;-78
2021/04/28 06:24:06;;;;;;;;;;;19.30;58.10;;;;;;5039678;28;19948;-77
2021/04/28 06:26:32;;;;;;;;;;;19.30;58.10;;;;;;5035526;28;19916;-77
2021/04/28 06:28:57;;;;;;;;;;;19.30;58.10;;;;;;5053573;28;19913;-78
2021/04/28 06:31:23;;;;;;;;;;;19.30;58.10;;;;;;5051383;28;20455;-77
2021/04/28 06:33:48;;;;;;;;;;;19.30;58.10;;;;;;5051997;28;19919;-78
2021/04/28 06:36:14;;;;;;;;;;;19.30;58.10;;;;;;5050267;28;20006;-77
2021/04/28 06:38:44;;;;;;;;;;;19.30;58.10;;;;;;5035059;28;19999;-78
2021/04/28 06:41:10;;;;;;;;;;;19.30;58.00;;;;;;5052606;28;19913;-79
2021/04/28 06:43:35;;;;;;;;;;;19.30;58.10;;;;;;5051288;28;19912;-78
2021/04/28 06:46:01;;;;;;;;;;;19.30;58.00;;;;;;5035015;28;19936;-77
2021/04/28 06:48:26;;;;;;;;;;;19.30;57.90;;;;;;5041866;28;19913;-79
2021/04/28 06:50:53;;;;;;;;;;;19.30;57.90;;;;;;5053541;28;19932;-77
2021/04/28 06:53:18;;;;;;;;;;;19.30;57.90;;;;;;5035636;28;20350;-77
2021/04/28 06:55:44;;;;;;;;;;;19.30;57.80;;;;;;5047930;28;19965;-77
2021/04/28 06:58:10;;;;;;;;;;;19.30;57.80;;;;;;5049596;28;19966;-77
2021/04/28 07:00:35;;;;;;;;;;;19.40;57.80;;;;;;5050429;28;20012;-77
2021/04/28 07:03:01;;;;;;;;;;;19.40;57.80;;;;;;5054725;28;19912;-77
2021/04/28 07:05:27;;;;;;;;;;;19.40;57.70;;;;;;5053101;28;19913;-78
2021/04/28 07:07:53;;;;;;;;;;;19.40;57.70;;;;;;5052070;28;20427;-77
2021/04/28 07:10:18;;;;;;;;;;;19.40;57.60;;;;;;5036633;28;19921;-76
2021/04/28 07:12:44;;;;;;;;;;;19.40;57.60;;;;;;5052953;28;20282;-77
2021/04/28 07:15:10;;;;;;;;;;;19.40;57.50;;;;;;5049792;28;19914;-78
2021/04/28 07:17:36;;;;;;;;;;;19.40;57.50;;;;;;5051087;28;19913;-79
2021/04/28 07:20:02;;;;;;;;;;;19.40;57.50;;;;;;5032918;28;19943;-77
2021/04/28 07:22:28;;;;;;;;;;;19.50;57.40;;;;;;5047936;28;20201;-78
2021/04/28 07:24:54;;;;;;;;;;;19.50;57.40;;;;;;5051802;28;20398;-78
2021/04/28 07:27:23;;;;;;;;;;;19.50;57.40;;;;;;5051695;28;20019;-78
2021/04/28 07:29:48;;;;;;;;;;;19.50;57.40;;;;;;5041970;28;19920;-78
2021/04/28 07:32:14;;;;;;;;;;;19.50;57.30;;;;;;5051977;28;19921;-79
2021/04/28 07:34:40;;;;;;;;;;;19.50;57.30;;;;;;5035470;28;19962;-78
2021/04/28 07:37:05;;;;;;;;;;;19.50;57.20;;;;;;5044997;28;19916;-78
2021/04/28 07:39:36;;;;;;;;;;;19.60;57.30;;;;;;5029882;28;20384;-78
2021/04/28 07:42:01;;;;;;;;;;;19.50;57.20;;;;;;5041503;28;19995;-78
2021/04/28 07:44:30;;;;;;;;;;;19.60;57.10;;;;;;5049001;28;20004;-78
2021/04/28 07:46:56;;;;;;;;;;;19.60;57.10;;;;;;5051785;28;19913;-83
2021/04/28 07:49:21;;;;;;;;;;;19.60;57.10;;;;;;5050315;28;20055;-77
2021/04/28 07:51:47;;;;;;;;;;;19.60;57.00;;;;;;5051169;28;20481;-78
2021/04/28 07:54:12;;;;;;;;;;;19.60;57.00;;;;;;5033450;28;19925;-78
2021/04/28 07:56:43;;;;;;;;;;;19.60;57.00;;;;;;5030015;28;19940;-78
2021/04/28 07:59:09;;;;;;;;;;;19.60;57.00;;;;;;5049448;28;19913;-78
2021/04/28 08:01:35;;;;;;;;;;;19.60;57.00;;;;;;5032783;28;20358;-78
2021/04/28 08:04:15;;;;;;;;;;;19.60;57.00;;;;;;5050843;28;19966;-78
2021/04/28 08:06:41;;;;;;;;;;;19.70;57.00;;;;;;5026541;28;19925;-78
2021/04/28 08:09:06;;;;;;;;;;;19.60;57.00;;;;;;5024998;28;19912;-78
2021/04/28 08:11:32;;;;;;;;;;;19.60;57.00;;;;;;5051542;28;19925;-77
2021/04/28 08:13:57;;;;;;;;;;;19.60;57.00;;;;;;5050558;28;19920;-79
2021/04/28 08:16:24;;;;;;;;;;;19.60;57.00;;;;;;5029484;28;20354;-77
2021/04/28 08:18:49;;;;;;;;;;;19.60;57.00;;;;;;5050044;28;19935;-77
2021/04/28 08:21:16;;;;;;;;;;;19.60;57.00;;;;;;5048952;28;20342;-78
2021/04/28 08:23:44;;;;;;;;;;;19.60;57.00;;;;;;5034385;28;19913;-77
2021/04/28 08:26:11;;;;;;;;;;;19.60;57.00;;;;;;5051082;28;19912;-80
2021/04/28 08:28:40;;;;;;;;;;;19.60;57.00;;;;;;5049421;28;20262;-78
2021/04/28 08:31:06;;;;;;;;;;;19.60;57.10;;;;;;5046283;28;20426;-77
2021/04/28 08:33:32;;;;;;;;;;;19.60;57.00;;;;;;5030984;28;19920;-78
2021/04/28 08:35:57;;;;;;;;;;;19.60;57.00;;;;;;5051713;28;20274;-78
2021/04/28 08:38:23;;;;;;;;;;;19.60;57.00;;;;;;5054324;28;20361;-77
2021/04/28 08:40:48;;;;;;;;;;;19.60;57.00;;;;;;5049997;28;19913;-78
2021/04/28 08:43:14;;;;;;;;;;;19.60;57.00;;;;;;5039409;28;19920;-78
2021/04/28 08:45:39;;;;;;;;;;;19.60;57.00;;;;;;5031176;28;19960;-79
2021/04/28 08:48:05;;;;;;;;;;;19.60;57.00;;;;;;5027551;28;19920;-77
2021/04/28 08:50:30;;;;;;;;;;;19.60;57.00;;;;;;5048036;28;19935;-78
2021/04/28 08:52:56;;;;;;;;;;;19.60;57.00;;;;;;5046885;28;20520;-78
2021/04/28 08:55:22;;;;;;;;;;;19.60;57.00;;;;;;5036853;28;19924;-77
2021/04/28 08:57:48;;;;;;;;;;;19.70;56.90;;;;;;5048495;28;19921;-76
2021/04/28 09:00:14;;;;;;;;;;;19.60;56.90;;;;;;5050920;28;19948;-81
2021/04/28 09:02:53;;;;;;;;;;;19.70;56.90;;;;;;5034352;28;19920;-78
2021/04/28 09:05:18;;;;;;;;;;;19.60;56.90;;;;;;5022930;28;20004;-79
2021/04/28 09:07:44;;;;;;;;;;;19.70;57.00;;;;;;5035112;28;20074;-80
2021/04/28 09:10:21;;;;;;;;;;;19.60;56.90;;;;;;5056507;28;20340;-78
2021/04/28 09:13:05;;;;;;;;;;;19.70;57.00;;;;;;5031941;28;19912;-78
2021/04/28 09:15:35;;;;;;;;;;;19.70;57.00;;;;;;5054120;28;19936;-78
2021/04/28 09:18:06;;;;;;;;;;;19.60;56.90;;;;;;5053297;28;19913;-78
2021/04/28 09:20:39;;;;;;;;;;;19.70;56.90;;;;;;5048587;28;19919;-78
2021/04/28 09:23:38;;;;;;;;;;;19.70;56.90;;;;;;5047687;28;20476;-78
2021/04/28 09:26:15;;;;;;;;;;;19.70;56.90;;;;;;5034385;28;19992;-77
2021/04/28 09:28:59;;;;;;;;;;;19.70;56.90;;;;;;5035792;28;19944;-79
2021/04/28 09:31:24;;;;;;;;;;;19.70;56.90;;;;;;5033550;28;19928;-78
2021/04/28 09:33:51;;;;;;;;;;;19.70;56.90;;;;;;5038733;28;19913;-78
2021/04/28 09:36:23;;;;;;;;;;;19.70;56.90;;;;;;5058363;28;19935;-79
2021/04/28 09:38:54;;;;;;;;;;;19.70;56.90;;;;;;5030465;28;19963;-78
2021/04/28 09:41:28;;;;;;;;;;;19.70;56.90;;;;;;5034562;28;19912;-78
2021/04/28 09:43:53;;;;;;;;;;;19.70;56.80;;;;;;5053386;28;19999;-79
2021/04/28 09:46:19;;;;;;;;;;;19.70;56.90;;;;;;5050635;28;20003;-79
2021/04/28 09:48:57;;;;;;;;;;;19.70;56.80;;;;;;5051634;28;19916;-79
2021/04/28 09:51:30;;;;;;;;;;;19.70;56.80;;;;;;5051040;28;19932;-79
2021/04/28 09:54:07;;;;;;;;;;;19.70;56.80;;;;;;5051632;28;19917;-79
2021/04/28 09:56:36;;;;;;;;;;;19.70;56.90;;;;;;5042071;28;19921;-78
2021/04/28 09:59:02;;;;;;;;;;;19.70;56.80;;;;;;5051794;28;19917;-79
2021/04/28 10:01:33;;;;;;;;;;;19.70;56.80;;;;;;5053413;28;20366;-78
2021/04/28 10:03:59;;;;;;;;;;;19.70;56.80;;;;;;5053546;28;20028;-78
2021/04/28 10:06:48;;;;;;;;;;;19.70;56.80;;;;;;5035577;28;19991;-77
2021/04/28 10:09:34;;;;;;;;;;;19.70;56.80;;;;;;5054149;28;19959;-77
2021/04/28 10:12:20;;;;;;;;;;;19.70;56.80;;;;;;5027638;28;20133;-78
2021/04/28 10:14:45;;;;;;;;;;;19.70;56.80;;;;;;5034397;28;19928;-78
2021/04/28 10:17:12;;;;;;;;;;;19.70;56.80;;;;;;5044107;28;19917;-78
2021/04/28 10:19:38;;;;;;;;;;;19.70;56.80;;;;;;5047952;28;19912;-76
2021/04/28 10:22:05;;;;;;;;;;;19.70;56.80;;;;;;5034103;28;19927;-76
2021/04/28 10:24:30;;;;;;;;;;;19.70;56.80;;;;;;5031041;28;19913;-78
2021/04/28 10:26:56;;;;;;;;;;;19.70;56.70;;;;;;5027035;28;19917;-75
2021/04/28 10:29:25;;;;;;;;;;;19.70;56.80;;;;;;5043191;28;20195;-76
2021/04/28 10:31:52;;;;;;;;;;;19.70;56.70;;;;;;5052693;28;19921;-76
2021/04/28 10:34:26;;;;;;;;;;;19.70;56.70;;;;;;5053275;28;19963;-74
2021/04/28 10:36:57;;;;;;;;;;;19.80;56.70;;;;;;5054032;28;19921;-76
2021/04/28 10:39:24;;;;;;;;;;;19.70;56.70;;;;;;5057658;28;19921;-76
2021/04/28 10:41:55;;;;;;;;;;;19.70;56.70;;;;;;5052682;28;20362;-76
2021/04/28 10:44:30;;;;;;;;;;;19.80;56.60;;;;;;5034887;28;19913;-76
2021/04/28 10:47:19;;;;;;;;;;;19.80;56.70;;;;;;5034514;28;19913;-76
2021/04/28 10:50:03;;;;;;;;;;;19.80;56.60;;;;;;5050254;28;19923;-76
2021/04/28 10:52:32;;;;;;;;;;;19.80;56.60;;;;;;5052583;28;19927;-75
2021/04/28 10:55:02;;;;;;;;;;;19.70;56.60;;;;;;5052559;28;20400;-79
2021/04/28 10:57:36;;;;;;;;;;;19.80;56.60;;;;;;5045309;28;19952;-76
2021/04/28 11:00:25;;;;;;;;;;;19.80;56.60;;;;;;5025820;28;20286;-75
2021/04/28 11:02:50;;;;;;;;;;;19.80;56.60;;;;;;5032471;28;19919;-75
2021/04/28 11:05:33;;;;;;;;;;;19.80;56.60;;;;;;5052738;28;19917;-77
2021/04/28 11:08:00;;;;;;;;;;;19.80;56.60;;;;;;5033969;28;20012;-76
2021/04/28 11:10:33;;;;;;;;;;;19.80;56.50;;;;;;5052800;28;19928;-76
2021/04/28 11:13:09;;;;;;;;;;;19.80;56.50;;;;;;5051548;28;19920;-77
2021/04/28 11:15:47;;;;;;;;;;;19.80;56.50;;;;;;5050830;28;19913;-76
2021/04/28 11:18:46;;;;;;;;;;;19.80;56.50;;;;;;5049076;28;19931;-76
2021/04/28 11:21:17;;;;;;;;;;;19.80;56.50;;;;;;5045853;28;19913;-76
2021/04/28 11:24:06;;;;;;;;;;;19.80;56.50;;;;;;5034261;28;19921;-76
2021/04/28 11:26:34;;;;;;;;;;;19.80;56.50;;;;;;5049469;28;19939;-77
2021/04/28 11:29:00;;;;;;;;;;;19.80;56.50;;;;;;5051613;28;19913;-78
2021/04/28 11:31:45;;;;;;;;;;;19.80;56.40;;;;;;5049069;28;19925;-75
2021/04/28 11:34:23;;;;;;;;;;;19.80;56.40;;;;;;5041837;28;20382;-76
2021/04/28 11:36:50;;;;;;;;;;;19.80;56.40;;;;;;5030396;28;19913;-76
2021/04/28 11:39:33;;;;;;;;;;;19.80;56.40;;;;;;5049172;28;20270;-77
2021/04/28 11:42:05;;;;;;;;;;;19.80;56.40;;;;;;5052074;28;19971;-75
2021/04/28 11:44:35;;;;;;;;;;;19.80;56.40;;;;;;5040685;28;19940;-77
2021/04/28 11:47:12;;;;;;;;;;;19.80;56.40;;;;;;5026496;28;19912;-77
2021/04/28 11:49:44;;;;;;;;;;;19.80;56.40;;;;;;5048974;28;19920;-76
2021/04/28 11:52:10;;;;;;;;;;;19.80;56.30;;;;;;5050467;28;19928;-76
2021/04/28 11:54:41;;;;;;;;;;;19.80;56.30;;;;;;5029240;28;19915;-76
2021/04/28 11:57:07;;;;;;;;;;;19.80;56.30;;;;;;5051934;28;19935;-76
2021/04/28 11:59:35;;;;;;;;;;;19.80;56.30;;;;;;5027767;28;20365;-76
2021/04/28 12:02:05;;;;;;;;;;;19.80;56.30;;;;;;5032959;28;20008;-76
2021/04/28 12:04:45;;;;;;;;;;;19.80;56.30;;;;;;5051596;28;19947;-76
2021/04/28 12:07:14;;;;;;;;;;;19.80;56.30;;;;;;5048948;28;19921;-76
2021/04/28 12:09:40;;;;;;;;;;;19.90;56.30;;;;;;5045157;28;19913;-76
2021/04/28 12:12:07;;;;;;;;;;;19.80;56.30;;;;;;5050096;28;20535;-76
2021/04/28 12:14:32;;;;;;;;;;;19.90;56.20;;;;;;5049525;28;20369;-77
2021/04/28 12:16:58;;;;;;;;;;;19.90;56.30;;;;;;5034172;28;19919;-77
2021/04/28 12:19:27;;;;;;;;;;;19.90;56.30;;;;;;5052017;28;19948;-74
2021/04/28 12:21:54;;;;;;;;;;;19.90;56.20;;;;;;5045793;28;20428;-76
2021/04/28 12:24:27;;;;;;;;;;;19.90;56.20;;;;;;5035258;28;19919;-77
2021/04/28 12:27:02;;;;;;;;;;;19.90;56.20;;;;;;5036485;28;19917;-77
2021/04/28 12:29:28;;;;;;;;;;;19.80;56.20;;;;;;5053312;28;20007;-76
2021/04/28 12:31:53;;;;;;;;;;;19.90;56.20;;;;;;5050247;28;20326;-78
2021/04/28 12:34:19;;;;;;;;;;;19.90;56.10;;;;;;5044073;28;19990;-74
2021/04/28 12:36:48;;;;;;;;;;;19.90;56.10;;;;;;5030480;28;20003;-75
2021/04/28 12:39:23;;;;;;;;;;;19.90;56.10;;;;;;5045690;28;19998;-75
2021/04/28 12:41:49;;;;;;;;;;;19.90;56.10;;;;;;5051876;28;19916;-75
2021/04/28 12:44:14;;;;;;;;;;;20.00;56.10;;;;;;5026387;28;19970;-75
2021/04/28 12:46:44;;;;;;;;;;;19.90;56.10;;;;;;5045080;28;19920;-76
2021/04/28 12:49:09;;;;;;;;;;;20.00;56.10;;;;;;5048037;28;19913;-76
2021/04/28 12:51:41;;;;;;;;;;;20.00;56.10;;;;;;5047349;28;19929;-75
2021/04/28 12:54:07;;;;;;;;;;;19.90;56.10;;;;;;5046248;28;20026;-75
2021/04/28 12:56:43;;;;;;;;;;;20.00;56.00;;;;;;5034186;28;19913;-75
2021/04/28 12:59:18;;;;;;;;;;;20.00;56.00;;;;;;5047386;28;19913;-77
2021/04/28 13:01:57;;;;;;;;;;;20.00;56.00;;;;;;5060502;28;19966;-75
2021/04/28 13:04:22;;;;;;;;;;;20.00;56.00;;;;;;5040435;28;19917;-75
2021/04/28 13:06:52;;;;;;;;;;;20.00;56.00;;;;;;5034489;28;19921;-74
2021/04/28 13:09:18;;;;;;;;;;;20.00;55.90;;;;;;5035970;28;19913;-75
2021/04/28 13:11:44;;;;;;;;;;;20.00;56.00;;;;;;5041542;28;19921;-76
2021/04/28 13:14:17;;;;;;;;;;;20.00;56.00;;;;;;5054815;28;19913;-77
2021/04/28 13:16:56;;;;;;;;;;;20.00;55.90;;;;;;5053359;28;19916;-76
2021/04/28 13:19:26;;;;;;;;;;;20.00;55.90;;;;;;5049537;28;19912;-74
2021/04/28 13:22:01;;;;;;;;;;;20.10;55.80;;;;;;5035912;28;19913;-74
2021/04/28 13:24:31;;;;;;;;;;;20.10;55.70;;;;;;5049451;28;19959;-77
2021/04/28 13:27:08;;;;;;;;;;;20.20;55.60;;;;;;5029277;28;20008;-76
2021/04/28 13:29:53;;;;;;;;;;;20.20;55.50;;;;;;5049301;28;20318;-77
2021/04/28 13:32:38;;;;;;;;;;;20.20;55.40;;;;;;5040003;28;20096;-76
2021/04/28 13:35:09;;;;;;;;;;;20.20;55.40;;;;;;5045478;28;20269;-76
2021/04/28 13:37:35;;;;;;;;;;;20.30;55.30;;;;;;5054686;28;19920;-76
2021/04/28 13:40:11;;;;;;;;;;;20.30;55.20;;;;;;5033433;28;19913;-76
2021/04/28 13:42:36;;;;;;;;;;;20.30;55.10;;;;;;5045463;28;19913;-77
2021/04/28 13:45:02;;;;;;;;;;;20.30;54.90;;;;;;5050656;28;20016;-77
2021/04/28 13:47:27;;;;;;;;;;;20.40;54.90;;;;;;5034763;28;19920;-76
2021/04/28 13:49:53;;;;;;;;;;;20.40;54.80;;;;;;5055183;28;19913;-77
2021/04/28 13:52:18;;;;;;;;;;;20.40;54.80;;;;;;5037802;28;19993;-77
2021/04/28 13:54:44;;;;;;;;;;;20.40;54.80;;;;;;5052494;28;19967;-76
2021/04/28 13:57:09;;;;;;;;;;;20.40;54.80;;;;;;5053168;28;19917;-77
2021/04/28 13:59:35;;;;;;;;;;;20.40;54.80;;;;;;5036103;28;19956;-76
2021/04/28 14:02:00;;;;;;;;;;;20.30;54.80;;;;;;5052732;28;19919;-76
2021/04/28 14:04:26;;;;;;;;;;;20.40;54.90;;;;;;5053842;28;19924;-76
2021/04/28 14:06:51;;;;;;;;;;;20.30;54.90;;;;;;5033825;28;19936;-76
2021/04/28 14:09:17;;;;;;;;;;;20.30;55.00;;;;;;5032491;28;19924;-76
2021/04/28 14:11:43;;;;;;;;;;;20.30;55.00;;;;;;5028737;28;19932;-75
2021/04/28 14:14:12;;;;;;;;;;;20.30;55.00;;;;;;5030632;28;19917;-75
2021/04/28 14:16:37;;;;;;;;;;;20.30;55.00;;;;;;5033389;28;19921;-76
2021/04/28 14:19:03;;;;;;;;;;;20.30;55.00;;;;;;5032242;28;19921;-76
2021/04/28 14:21:29;;;;;;;;;;;20.30;55.00;;;;;;5030799;28;20272;-75